地図

経路データ

SID SEASON NUMBER BASIN SUBBASIN NAME ISO_TIME NATURE LAT LON WMO_WIND WMO_PRES WMO_AGENCY TRACK_TYPE DIST2LAND LANDFALL IFLAG USA_AGENCY USA_ATCF_ID USA_LAT USA_LON USA_RECORD USA_STATUS USA_WIND USA_PRES USA_SSHS USA_R34_NE USA_R34_SE USA_R34_SW USA_R34_NW USA_R50_NE USA_R50_SE USA_R50_SW USA_R50_NW USA_R64_NE USA_R64_SE USA_R64_SW USA_R64_NW USA_POCI USA_ROCI USA_RMW USA_EYE TOKYO_LAT TOKYO_LON TOKYO_GRADE TOKYO_WIND TOKYO_PRES TOKYO_R50_DIR TOKYO_R50_LONG TOKYO_R50_SHORT TOKYO_R30_DIR TOKYO_R30_LONG TOKYO_R30_SHORT TOKYO_LAND CMA_LAT CMA_LON CMA_CAT CMA_WIND CMA_PRES HKO_LAT HKO_LON HKO_CAT HKO_WIND HKO_PRES NEWDELHI_LAT NEWDELHI_LON NEWDELHI_GRADE NEWDELHI_WIND NEWDELHI_PRES NEWDELHI_CI NEWDELHI_DP NEWDELHI_POCI REUNION_LAT REUNION_LON REUNION_TYPE REUNION_WIND REUNION_PRES REUNION_TNUM REUNION_CI REUNION_RMW REUNION_R34_NE REUNION_R34_SE REUNION_R34_SW REUNION_R34_NW REUNION_R50_NE REUNION_R50_SE REUNION_R50_SW REUNION_R50_NW REUNION_R64_NE REUNION_R64_SE REUNION_R64_SW REUNION_R64_NW BOM_LAT BOM_LON BOM_TYPE BOM_WIND BOM_PRES BOM_TNUM BOM_CI BOM_RMW BOM_R34_NE BOM_R34_SE BOM_R34_SW BOM_R34_NW BOM_R50_NE BOM_R50_SE BOM_R50_SW BOM_R50_NW BOM_R64_NE BOM_R64_SE BOM_R64_SW BOM_R64_NW BOM_ROCI BOM_POCI BOM_EYE BOM_POS_METHOD BOM_PRES_METHOD NADI_LAT NADI_LON NADI_CAT NADI_WIND NADI_PRES WELLINGTON_LAT WELLINGTON_LON WELLINGTON_WIND WELLINGTON_PRES DS824_LAT DS824_LON DS824_STAGE DS824_WIND DS824_PRES TD9636_LAT TD9636_LON TD9636_STAGE TD9636_WIND TD9636_PRES TD9635_LAT TD9635_LON TD9635_WIND TD9635_PRES TD9635_ROCI NEUMANN_LAT NEUMANN_LON NEUMANN_CLASS NEUMANN_WIND NEUMANN_PRES MLC_LAT MLC_LON MLC_CLASS MLC_WIND MLC_PRES USA_GUST BOM_GUST BOM_GUST_PER REUNION_GUST REUNION_GUST_PER USA_SEAHGT USA_SEARAD_NE USA_SEARAD_SE USA_SEARAD_SW USA_SEARAD_NW STORM_SPEED STORM_DIR
1887276N12322 1887 57 NA NA NOT_NAMED 1887-10-02 12:00:00 TS 11.5000 -38.0000 main 1625 1619 _____________O -1 11.5000 -38.0000 TS 45 1002 10 270
1887276N12322 1887 57 NA NA NOT_NAMED 1887-10-02 15:00:00 TS 11.5002 -38.5000 main 1619 1576 _____________P -1 11.5002 -38.5000 TS 45 10 270
1887276N12322 1887 57 NA NA NOT_NAMED 1887-10-02 18:00:00 TS 11.5000 -39.0000 main 1576 1529 _____________O -1 11.5000 -39.0000 TS 45 10 270
1887276N12322 1887 57 NA NA NOT_NAMED 1887-10-02 21:00:00 TS 11.4999 -39.5000 main 1529 1483 _____________P -1 11.4999 -39.5000 TS 45 10 270
1887276N12322 1887 57 NA NA NOT_NAMED 1887-10-03 00:00:00 TS 11.5000 -40.0000 main 1483 1437 _____________O -1 11.5000 -40.0000 TS 45 10 270
1887276N12322 1887 57 NA NA NOT_NAMED 1887-10-03 03:00:00 TS 11.4999 -40.5000 main 1437 1392 _____________P -1 11.4999 -40.5000 TS 45 10 270
1887276N12322 1887 57 NA NA NOT_NAMED 1887-10-03 06:00:00 TS 11.5000 -41.0000 main 1392 1347 _____________O -1 11.5000 -41.0000 TS 45 10 268
1887276N12322 1887 57 NA NA NOT_NAMED 1887-10-03 09:00:00 TS 11.4625 -41.5227 main 1347 1303 _____________P -1 11.4625 -41.5227 TS 47 10 270
1887276N12322 1887 57 NA NA NOT_NAMED 1887-10-03 12:00:00 TS 11.5000 -42.0000 main 1303 1283 _____________O -1 11.5000 -42.0000 TS 50 9 286
1887276N12322 1887 57 NA NA NOT_NAMED 1887-10-03 15:00:00 TS 11.7049 -42.3799 main 1283 1280 _____________P -1 11.7049 -42.3799 TS 50 9 306
1887276N12322 1887 57 NA NA NOT_NAMED 1887-10-03 18:00:00 TS 12.0000 -42.7000 main 1280 1271 _____________O -1 12.0000 -42.7000 TS 50 9 314
1887276N12322 1887 57 NA NA NOT_NAMED 1887-10-03 21:00:00 TS 12.2924 -43.0076 main 1279 1271 _____________P -1 12.2924 -43.0076 TS 50 8 316
1887276N12322 1887 57 NA NA NOT_NAMED 1887-10-04 00:00:00 TS 12.6000 -43.3000 main 1280 1280 _____________O -1 12.6000 -43.3000 TS 50 8 316
1887276N12322 1887 57 NA NA NOT_NAMED 1887-10-04 03:00:00 TS 12.9000 -43.6001 main 1282 1282 _____________P -1 12.9000 -43.6001 TS 50 8 316
1887276N12322 1887 57 NA NA NOT_NAMED 1887-10-04 06:00:00 TS 13.2000 -43.9000 main 1286 1286 _____________O -1 13.2000 -43.9000 TS 50 9 316
1887276N12322 1887 57 NA NA NOT_NAMED 1887-10-04 09:00:00 TS 13.5075 -44.2075 main 1292 1292 _____________P -1 13.5075 -44.2075 TS 52 8 316
1887276N12322 1887 57 NA NA NOT_NAMED 1887-10-04 12:00:00 TS 13.8000 -44.5000 main 1299 1299 _____________O -1 13.8000 -44.5000 TS 55 8 316
1887276N12322 1887 57 NA NA NOT_NAMED 1887-10-04 15:00:00 TS 14.0650 -44.7651 main 1309 1309 _____________P -1 14.0650 -44.7651 TS 55 7 316
1887276N12322 1887 57 NA NA NOT_NAMED 1887-10-04 18:00:00 TS 14.3000 -45.0000 main 1316 1316 _____________O -1 14.3000 -45.0000 TS 55 6 316
1887276N12322 1887 57 NA NA NOT_NAMED 1887-10-04 21:00:00 TS 14.5074 -45.2001 main 1319 1319 _____________P -1 14.5074 -45.2001 TS 55 6 316
1887276N12322 1887 57 NA NA NOT_NAMED 1887-10-05 00:00:00 TS 14.7000 -45.4000 main 1324 1317 _____________O -1 14.7000 -45.4000 TS 55 6 313
1887276N12322 1887 57 NA NA NOT_NAMED 1887-10-05 03:00:00 TS 14.9000 -45.6425 main 1329 1323 _____________P -1 14.9000 -45.6425 TS 55 6 310
1887276N12322 1887 57 NA NA NOT_NAMED 1887-10-05 06:00:00 TS 15.1000 -45.9000 main 1329 1323 _____________O -1 15.1000 -45.9000 TS 55 6 308
1887276N12322 1887 57 NA NA NOT_NAMED 1887-10-05 09:00:00 TS 15.2774 -46.1427 main 1335 1330 _____________P -1 15.2774 -46.1427 TS 55 6 310
1887276N12322 1887 57 NA NA NOT_NAMED 1887-10-05 12:00:00 TS 15.5000 -46.4000 main 1337 1337 _____________O -1 15.5000 -46.4000 TS 55 8 316
1887276N12322 1887 57 NA NA NOT_NAMED 1887-10-05 15:00:00 TS 15.8350 -46.6999 main 1350 1350 _____________P -1 15.8350 -46.6999 TS 55 9 320
1887276N12322 1887 57 NA NA NOT_NAMED 1887-10-05 18:00:00 TS 16.2000 -47.0000 main 1375 1375 _____________O -1 16.2000 -47.0000 TS 55 9 321
1887276N12322 1887 57 NA NA NOT_NAMED 1887-10-05 21:00:00 TS 16.5074 -47.2576 main 1390 1390 _____________P -1 16.5074 -47.2576 TS 55 8 321
1887276N12322 1887 57 NA NA NOT_NAMED 1887-10-06 00:00:00 TS 16.8000 -47.5000 main 1411 1411 _____________O -1 16.8000 -47.5000 TS 55 8 322
1887276N12322 1887 57 NA NA NOT_NAMED 1887-10-06 03:00:00 TS 17.1000 -47.7501 main 1429 1429 _____________P -1 17.1000 -47.7501 TS 55 8 321
1887276N12322 1887 57 NA NA NOT_NAMED 1887-10-06 06:00:00 TS 17.4000 -48.0000 main 1452 1452 _____________O -1 17.4000 -48.0000 TS 55 8 320
1887276N12322 1887 57 NA NA NOT_NAMED 1887-10-06 09:00:00 TS 17.6925 -48.2650 main 1468 1468 _____________P -1 17.6925 -48.2650 TS 55 8 322
1887276N12322 1887 57 NA NA NOT_NAMED 1887-10-06 12:00:00 TS 18.0000 -48.5000 main 1489 1489 _____________O -1 18.0000 -48.5000 TS 55 8 330
1887276N12322 1887 57 NA NA NOT_NAMED 1887-10-06 15:00:00 TS 18.3499 -48.6651 main 1511 1511 _____________P -1 18.3499 -48.6651 TS 55 8 338
1887276N12322 1887 57 NA NA NOT_NAMED 1887-10-06 18:00:00 TS 18.7000 -48.8000 main 1548 1548 _____________O -1 18.7000 -48.8000 TS 55 7 338
1887276N12322 1887 57 NA NA NOT_NAMED 1887-10-06 21:00:00 TS 19.0075 -48.9501 main 1571 1571 _____________P -1 19.0075 -48.9501 TS 57 7 335
1887276N12322 1887 57 NA NA NOT_NAMED 1887-10-07 00:00:00 TS 19.3000 -49.1000 main 1598 1597 _____________O -1 19.3000 -49.1000 TS 60 7 334
1887276N12322 1887 57 NA NA NOT_NAMED 1887-10-07 03:00:00 TS 19.6000 -49.2575 main 1602 1602 _____________P -1 19.6000 -49.2575 TS 60 7 335
1887276N12322 1887 57 NA NA NOT_NAMED 1887-10-07 06:00:00 TS 19.9000 -49.4000 main 1614 1612 _____________O -1 19.9000 -49.4000 TS 60 6 339
1887276N12322 1887 57 NA NA NOT_NAMED 1887-10-07 09:00:00 TS 20.1925 -49.5076 main 1626 1625 _____________P -1 20.1925 -49.5076 TS 60 6 342
1887276N12322 1887 57 NA NA NOT_NAMED 1887-10-07 12:00:00 TS 20.5000 -49.6000 main 1640 1640 _____________O -1 20.5000 -49.6000 TS 60 7 344
1887276N12322 1887 57 NA NA NOT_NAMED 1887-10-07 15:00:00 TS 20.8500 -49.7075 main 1661 1661 _____________P -1 20.8500 -49.7075 TS 60 7 345
1887276N12322 1887 57 NA NA NOT_NAMED 1887-10-07 18:00:00 TS 21.2000 -49.8000 main 1676 1676 _____________O -1 21.2000 -49.8000 TS 60 7 348
1887276N12322 1887 57 NA NA NOT_NAMED 1887-10-07 21:00:00 TS 21.5075 -49.8576 main 1676 1676 _____________P -1 21.5075 -49.8576 TS 62 6 351
1887276N12322 1887 57 NA NA NOT_NAMED 1887-10-08 00:00:00 TS 21.8000 -49.9000 main 1681 1678 _____________O -1 21.8000 -49.9000 HU 65 6 352
1887276N12322 1887 57 NA NA NOT_NAMED 1887-10-08 03:00:00 TS 22.1000 -49.9575 main 1678 1678 _____________P -1 22.1000 -49.9575 HU 65 6 352
1887276N12322 1887 57 NA NA NOT_NAMED 1887-10-08 06:00:00 TS 22.4000 -50.0000 main 1685 1685 _____________O -1 22.4000 -50.0000 HU 65 6 354
1887276N12322 1887 57 NA NA NOT_NAMED 1887-10-08 09:00:00 TS 22.7075 -50.0225 main 1692 1692 _____________P -1 22.7075 -50.0225 HU 65 6 1
1887276N12322 1887 57 NA NA NOT_NAMED 1887-10-08 12:00:00 TS 23.0000 -50.0000 main 1700 1700 _____________O -1 23.0000 -50.0000 HU 65 6 9
1887276N12322 1887 57 NA NA NOT_NAMED 1887-10-08 15:00:00 TS 23.2575 -49.9225 main 1719 1719 _____________P -1 23.2575 -49.9225 HU 65 5 20
1887276N12322 1887 57 NA NA NOT_NAMED 1887-10-08 18:00:00 TS 23.5000 -49.8000 main 1735 1735 _____________O -1 23.5000 -49.8000 HU 65 5 26
1887276N12322 1887 57 NA NA NOT_NAMED 1887-10-08 21:00:00 TS 23.7500 -49.6649 main 1751 1751 _____________P -1 23.7500 -49.6649 HU 67 6 29
1887276N12322 1887 57 NA NA NOT_NAMED 1887-10-09 00:00:00 TS 24.0000 -49.5000 main 1780 1780 _____________O -1 24.0000 -49.5000 HU 70 6 33
1887276N12322 1887 57 NA NA NOT_NAMED 1887-10-09 03:00:00 TS 24.2500 -49.3075 main 1810 1810 _____________P -1 24.2500 -49.3075 HU 70 6 36
1887276N12322 1887 57 NA NA NOT_NAMED 1887-10-09 06:00:00 TS 24.5000 -49.1000 main 1836 1836 _____________O -1 24.5000 -49.1000 HU 70 6 35
1887276N12322 1887 57 NA NA NOT_NAMED 1887-10-09 09:00:00 TS 24.7499 -48.9223 main 1862 1862 _____________P -1 24.7499 -48.9223 HU 70 6 36
1887276N12322 1887 57 NA NA NOT_NAMED 1887-10-09 12:00:00 TS 25.0000 -48.7000 main 1892 1892 _____________O -1 25.0000 -48.7000 HU 70 7 45
1887276N12322 1887 57 NA NA NOT_NAMED 1887-10-09 15:00:00 TS 25.2576 -48.3651 main 1932 1932 _____________P -1 25.2576 -48.3651 HU 70 8 52
1887276N12322 1887 57 NA NA NOT_NAMED 1887-10-09 18:00:00 TS 25.5000 -48.0000 main 1978 1978 _____________O -1 25.5000 -48.0000 HU 70 8 54
1887276N12322 1887 57 NA NA NOT_NAMED 1887-10-09 21:00:00 TS 25.6999 -47.6922 main 2014 2014 _____________P -1 25.6999 -47.6922 HU 72 7 54
1887276N12322 1887 57 NA NA NOT_NAMED 1887-10-10 00:00:00 TS 25.9000 -47.4000 main 2049 2049 _____________O -1 25.9000 -47.4000 HU 75 7 50
1887276N12322 1887 57 NA NA NOT_NAMED 1887-10-10 03:00:00 TS 26.1499 -47.1000 main 2085 2085 _____________P -1 26.1499 -47.1000 HU 75 7 47
1887276N12322 1887 57 NA NA NOT_NAMED 1887-10-10 06:00:00 TS 26.4000 -46.8000 main 2125 2125 _____________O -1 26.4000 -46.8000 HU 75 6 51
1887276N12322 1887 57 NA NA NOT_NAMED 1887-10-10 09:00:00 TS 26.5469 -46.5586 main 2148 2148 _____________P -1 26.5469 -46.5586 HU 75 7 53
1887276N12322 1887 57 NA NA NOT_NAMED 1887-10-10 12:00:00 TS 26.8000 -46.2000 main 2197 2197 _____________O -1 26.8000 -46.2000 HU 75 12 49
1887276N12322 1887 57 NA NA NOT_NAMED 1887-10-10 15:00:00 TS 27.3026 -45.5820 main 2250 2196 _____________P -1 27.3026 -45.5820 HU 75 17 46
1887276N12322 1887 57 NA NA NOT_NAMED 1887-10-10 18:00:00 TS 28.0000 -44.8000 main 2196 2136 _____________O -1 28.0000 -44.8000 HU 75 21 44
1887276N12322 1887 57 NA NA NOT_NAMED 1887-10-10 21:00:00 TS 28.8203 -43.9506 main 2136 2073 _____________P -1 28.8203 -43.9506 HU 75 23 41
1887276N12322 1887 57 NA NA NOT_NAMED 1887-10-11 00:00:00 TS 29.7000 -43.1000 main 2073 2028 _____________O -1 29.7000 -43.1000 HU 75 21 40
1887276N12322 1887 57 NA NA NOT_NAMED 1887-10-11 03:00:00 TS 30.4165 -42.3952 main 2028 1971 _____________P -1 30.4165 -42.3952 HU 75 20 37
1887276N12322 1887 57 NA NA NOT_NAMED 1887-10-11 06:00:00 TS 31.3000 -41.7000 main 1966 1884 _____________O -1 31.3000 -41.7000 HU 75 26 31
1887276N12322 1887 57 NA NA NOT_NAMED 1887-10-11 09:00:00 TS 32.6184 -40.8232 main 1879 1786 _____________P -1 32.6184 -40.8232 HU 75 32 27
1887276N12322 1887 57 NA NA NOT_NAMED 1887-10-11 12:00:00 TS 34.1000 -40.0000 main 1777 1693 _____________O -1 34.1000 -40.0000 HU 75 31 23
1887276N12322 1887 57 NA NA NOT_NAMED 1887-10-11 15:00:00 TS 35.4495 -39.3579 main 1693 1606 _____________P -1 35.4495 -39.3579 HU 77 28 17
1887276N12322 1887 57 NA NA NOT_NAMED 1887-10-11 18:00:00 TS 36.8000 -39.0000 main 1598 1488 _____________O -1 36.8000 -39.0000 HU 80 989 28 5
1887276N12322 1887 57 NA NA NOT_NAMED 1887-10-11 21:00:00 TS 38.1996 -39.0761 main 1480 1376 _____________P -1 38.1996 -39.0761 HU 77 28 357
1887276N12322 1887 57 NA NA NOT_NAMED 1887-10-12 00:00:00 TS 39.6000 -39.2000 main 1369 1300 _____________O -1 39.6000 -39.2000 HU 75 28 3
1887276N12322 1887 57 NA NA NOT_NAMED 1887-10-12 03:00:00 TS 40.9577 -38.8848 main 1294 1257 _____________P -1 40.9577 -38.8848 HU 72 28 13
1887276N12322 1887 57 NA NA NOT_NAMED 1887-10-12 06:00:00 TS 42.3000 -38.4000 main 1252 1200 _____________O -1 42.3000 -38.4000 HU 70 30 13
1887276N12322 1887 57 NA NA NOT_NAMED 1887-10-12 09:00:00 TS 43.8893 -37.9913 main 1195 1179 _____________P -1 43.8893 -37.9913 HU 65 28 14
1887276N12322 1887 57 NA NA NOT_NAMED 1887-10-12 12:00:00 ET 45.0000 -37.5000 main 1187 1187 _____________O -1 45.0000 -37.5000 EX 60 965 14 36
1887276N12322 1887 57 NA NA NOT_NAMED 1887-10-12 15:00:00 ET 44.9901 -36.8663 main 1231 1231 _____________P -1 44.9901 -36.8663 EX 60 10 119
1887276N12322 1887 57 NA NA NOT_NAMED 1887-10-12 18:00:00 ET 44.5000 -36.2000 main 1302 1302 _____________O -1 44.5000 -36.2000 EX 60 12 129
1887276N12322 1887 57 NA NA NOT_NAMED 1887-10-12 21:00:00 ET 44.2719 -35.6014 main 1354 1354 _____________P -1 44.2719 -35.6014 EX 60 10 120
1887276N12322 1887 57 NA NA NOT_NAMED 1887-10-13 00:00:00 ET 44.0000 -35.0000 main 1411 1411 _____________O -1 44.0000 -35.0000 EX 60 11 126
1887276N12322 1887 57 NA NA NOT_NAMED 1887-10-13 03:00:00 ET 43.6149 -34.3496 main 1479 1479 _____________P -1 43.6149 -34.3496 EX 57 12 130
1887276N12322 1887 57 NA NA NOT_NAMED 1887-10-13 06:00:00 ET 43.2000 -33.7000 main 1542 1542 _____________O -1 43.2000 -33.7000 EX 55 11 131
1887276N12322 1887 57 NA NA NOT_NAMED 1887-10-13 09:00:00 ET 42.8632 -33.1631 main 1592 1592 _____________P -1 42.8632 -33.1631 EX 55 11 129
1887276N12322 1887 57 NA NA NOT_NAMED 1887-10-13 12:00:00 ET 42.5000 -32.5000 main 1663 1663 _____________O -1 42.5000 -32.5000 EX 55 995 15 125
1887276N12322 1887 57 NA NA NOT_NAMED 1887-10-13 15:00:00 ET 42.0231 -31.5167 main 1761 1739 _____________P -1 42.0231 -31.5167 EX 55 19 123
1887276N12322 1887 57 NA NA NOT_NAMED 1887-10-13 18:00:00 ET 41.5000 -30.4000 main 1734 1665 _____________O -1 41.5000 -30.4000 EX 55 19 122
1887276N12322 1887 57 NA NA NOT_NAMED 1887-10-13 21:00:00 ET 40.9990 -29.3516 main 1665 1596 _____________P -1 40.9990 -29.3516 EX 52 19 122
1887276N12322 1887 57 NA NA NOT_NAMED 1887-10-14 00:00:00 ET 40.5000 -28.3000 main 1591 1526 _____________O -1 40.5000 -28.3000 EX 50 19 122
1887276N12322 1887 57 NA NA NOT_NAMED 1887-10-14 03:00:00 ET 39.9988 -27.2592 main 1526 1444 _____________P -1 39.9988 -27.2592 EX 50 19 122
1887276N12322 1887 57 NA NA NOT_NAMED 1887-10-14 06:00:00 ET 39.5000 -26.2000 main 1435 1336 _____________O -1 39.5000 -26.2000 EX 50 21 122
1887276N12322 1887 57 NA NA NOT_NAMED 1887-10-14 09:00:00 ET 38.9045 -24.9618 main 1336 1254 _____________P -1 38.9045 -24.9618 EX 50 20 120
1887276N12322 1887 57 NA NA NOT_NAMED 1887-10-14 12:00:00 ET 38.5000 -24.0000 main 1254 1228 _____________O -1 38.5000 -24.0000 EX 50 997 10 109
1887276N12322 1887 57 NA NA NOT_NAMED 1887-10-14 15:00:00 ET 38.5582 -23.7026 main 1227 1225 _____________P -1 38.5582 -23.7026 EX 50 4 38
1887276N12322 1887 57 NA NA NOT_NAMED 1887-10-14 18:00:00 ET 38.8000 -23.7000 main 1225 1216 _____________O -1 38.8000 -23.7000 EX 50 4 14
1887276N12322 1887 57 NA NA NOT_NAMED 1887-10-14 21:00:00 ET 38.8999 -23.5998 main 1216 1207 _____________P -1 38.8999 -23.5998 EX 47 3 38
1887276N12322 1887 57 NA NA NOT_NAMED 1887-10-15 00:00:00 ET 39.0000 -23.5000 main 1207 1197 _____________O -1 39.0000 -23.5000 EX 45 3 38
1887276N12322 1887 57 NA NA NOT_NAMED 1887-10-15 03:00:00 ET 39.1500 -23.3501 main 1197 1179 _____________P -1 39.1500 -23.3501 EX 45 4 38
1887276N12322 1887 57 NA NA NOT_NAMED 1887-10-15 06:00:00 ET 39.3000 -23.2000 main 1179 1162 _____________O -1 39.3000 -23.2000 EX 45 4 40
1887276N12322 1887 57 NA NA NOT_NAMED 1887-10-15 09:00:00 ET 39.4374 -23.0399 main 1162 1162 _____________P -1 39.4374 -23.0399 EX 42 3 38
1887276N12322 1887 57 NA NA NOT_NAMED 1887-10-15 12:00:00 ET 39.5000 -23.0000 main 1162 1162 _____________O -1 39.5000 -23.0000 EX 40 997 1 263
1887276N12322 1887 57 NA NA NOT_NAMED 1887-10-15 15:00:00 ET 39.4226 -23.1977 main 1179 1179 _____________P -1 39.4226 -23.1977 EX 40 4 243
1887276N12322 1887 57 NA NA NOT_NAMED 1887-10-15 18:00:00 ET 39.3000 -23.5000 main 1205 1205 _____________O -1 39.3000 -23.5000 EX 40 5 247
1887276N12322 1887 57 NA NA NOT_NAMED 1887-10-15 21:00:00 ET 39.2424 -23.7499 main 1223 1223 _____________P -1 39.2424 -23.7499 EX 37 4 256
1887276N12322 1887 57 NA NA NOT_NAMED 1887-10-16 00:00:00 ET 39.2000 -24.0000 main 1248 1248 _____________O -1 39.2000 -24.0000 EX 35 4 257
1887276N12322 1887 57 NA NA NOT_NAMED 1887-10-16 03:00:00 ET 39.1499 -24.2500 main 1266 1266 _____________P -1 39.1499 -24.2500 EX 35 4 256
1887276N12322 1887 57 NA NA NOT_NAMED 1887-10-16 06:00:00 ET 39.1000 -24.5000 main 1292 1292 _____________O -1 39.1000 -24.5000 EX 35 4 255
1887276N12322 1887 57 NA NA NOT_NAMED 1887-10-16 09:00:00 ET 39.0498 -24.7349 main 1310 1310 _____________P -1 39.0498 -24.7349 EX 32 4 256
1887276N12322 1887 57 NA NA NOT_NAMED 1887-10-16 12:00:00 ET 39.0000 -25.0000 main 1336 1336 _____________O -1 39.0000 -25.0000 EX 30 1001 5 258
1887276N12322 1887 57 NA NA NOT_NAMED 1887-10-16 15:00:00 ET 38.9501 -25.3425 main 1361 1361 _____________P -1 38.9501 -25.3425 EX 30 6 260
1887276N12322 1887 57 NA NA NOT_NAMED 1887-10-16 18:00:00 ET 38.9000 -25.7000 main 1397 1397 _____________O -1 38.9000 -25.7000 EX 30 5 257
1887276N12322 1887 57 NA NA NOT_NAMED 1887-10-16 21:00:00 ET 38.8349 -26.0076 main 1423 1423 _____________P -1 38.8349 -26.0076 EX 30 5 258
1887276N12322 1887 57 NA NA NOT_NAMED 1887-10-17 00:00:00 ET 38.8000 -26.3000 main 1449 1449 _____________O -1 38.8000 -26.3000 EX 30 5 270
1887276N12322 1887 57 NA NA NOT_NAMED 1887-10-17 03:00:00 ET 38.8349 -26.5999 main 1475 1475 _____________P -1 38.8349 -26.5999 EX 30 5 282
1887276N12322 1887 57 NA NA NOT_NAMED 1887-10-17 06:00:00 ET 38.9000 -26.9000 main 1500 1500 _____________O -1 38.9000 -26.9000 EX 30 5 277
1887276N12322 1887 57 NA NA NOT_NAMED 1887-10-17 09:00:00 ET 38.8897 -27.1786 main 1521 1521 _____________P -1 38.8897 -27.1786 EX 30 5 282
1887276N12322 1887 57 NA NA NOT_NAMED 1887-10-17 12:00:00 ET 39.0000 -27.5000 main 1546 1546 _____________O -1 39.0000 -27.5000 EX 30 1001 8 310
1887276N12322 1887 57 NA NA NOT_NAMED 1887-10-17 15:00:00 ET 39.3826 -27.9269 main 1581 1581 _____________P -1 39.3826 -27.9269 EX 30 11 322
1887276N12322 1887 57 NA NA NOT_NAMED 1887-10-17 18:00:00 ET 39.9000 -28.4000 main 1618 1618 _____________O -1 39.9000 -28.4000 EX 30 13 326
1887276N12322 1887 57 NA NA NOT_NAMED 1887-10-17 21:00:00 ET 40.4373 -28.8496 main 1634 1634 _____________P -1 40.4373 -28.8496 EX 30 12 326
1887276N12322 1887 57 NA NA NOT_NAMED 1887-10-18 00:00:00 ET 40.9000 -29.3000 main 1660 1660 _____________O -1 40.9000 -29.3000 EX 30 10 316
1887276N12322 1887 57 NA NA NOT_NAMED 1887-10-18 03:00:00 ET 41.1374 -29.7588 main 1695 1693 _____________P -1 41.1374 -29.7588 EX 30 8 301
1887276N12322 1887 57 NA NA NOT_NAMED 1887-10-18 06:00:00 ET 41.3000 -30.2000 main 1722 1722 _____________O -1 41.3000 -30.2000 EX 30 8 308
1887276N12322 1887 57 NA NA NOT_NAMED 1887-10-18 09:00:00 ET 41.6323 -30.6061 main 1747 1747 _____________P -1 41.6323 -30.6061 EX 30 8 310
1887276N12322 1887 57 NA NA NOT_NAMED 1887-10-18 12:00:00 ET 41.8000 -31.0000 main 1775 1775 _____________O -1 41.8000 -31.0000 EX 30 1001 6 261
1887276N12322 1887 57 NA NA NOT_NAMED 1887-10-18 15:00:00 ET 41.5399 -31.4089 main 1795 1784 _____________P -1 41.5399 -31.4089 EX 30 9 221
1887276N12322 1887 57 NA NA NOT_NAMED 1887-10-18 18:00:00 ET 41.1000 -31.8000 main 1788 1784 _____________O -1 41.1000 -31.8000 EX 30 10 215
1887276N12322 1887 57 NA NA NOT_NAMED 1887-10-18 21:00:00 ET 40.7497 -32.1494 main 1790 1779 _____________P -1 40.7497 -32.1494 EX 30 9 217
1887276N12322 1887 57 NA NA NOT_NAMED 1887-10-19 00:00:00 ET 40.4000 -32.5000 main 1779 1770 _____________O -1 40.4000 -32.5000 EX 30 9 219
1887276N12322 1887 57 NA NA NOT_NAMED 1887-10-19 03:00:00 ET 40.0500 -32.8998 main 1770 1767 _____________P -1 40.0500 -32.8998 EX 30 9 221
1887276N12322 1887 57 NA NA NOT_NAMED 1887-10-19 06:00:00 ET 39.7000 -33.3000 main 1767 1757 _____________O -1 39.7000 -33.3000 EX 30 11 222
1887276N12322 1887 57 NA NA NOT_NAMED 1887-10-19 09:00:00 ET 39.2746 -33.8231 main 1757 1749 _____________P -1 39.2746 -33.8231 EX 30 9 218
1887276N12322 1887 57 NA NA NOT_NAMED 1887-10-19 12:00:00 ET 39.0000 -34.0000 main 1762 1762 _____________O -1 39.0000 -34.0000 EX 30 1003 4 122
1887276N12322 1887 57 NA NA NOT_NAMED 1887-10-19 15:00:00 ET 39.0760 -33.4156 main 1798 1798 _____________P -1 39.0760 -33.4156 EX 30 12 76
1887276N12322 1887 57 NA NA NOT_NAMED 1887-10-19 18:00:00 ET 39.3000 -32.5000 main 1849 1849 _____________O -1 39.3000 -32.5000 EX 30 13 74
1887276N12322 1887 57 NA NA NOT_NAMED 1887-10-19 21:00:00 ET 39.4487 -31.7869 main 1850 1810 _____________P -1 39.4487 -31.7869 EX 30 12 75
1887276N12322 1887 57 NA NA NOT_NAMED 1887-10-20 00:00:00 ET 39.6000 -31.0000 main 1810 1760 _____________O -1 39.6000 -31.0000 EX 30 14 77
1887276N12322 1887 57 NA NA NOT_NAMED 1887-10-20 03:00:00 ET 39.7500 -30.0373 main 1751 1675 _____________P -1 39.7500 -30.0373 EX 30 16 79
1887276N12322 1887 57 NA NA NOT_NAMED 1887-10-20 06:00:00 ET 39.9000 -29.0000 main 1667 1563 _____________O -1 39.9000 -29.0000 EX 30 18 80
1887276N12322 1887 57 NA NA NOT_NAMED 1887-10-20 09:00:00 ET 40.0592 -27.7388 main 1555 1495 _____________P -1 40.0592 -27.7388 EX 30 16 79
1887276N12322 1887 57 NA NA NOT_NAMED 1887-10-20 12:00:00 ET 40.2000 -27.0000 main 1495 1495 _____________O -1 40.2000 -27.0000 EX 30 1003 3 38
1887276N12322 1887 57 NA NA NOT_NAMED 1887-10-20 15:00:00 ET 40.3078 -27.4864 main 1532 1532 _____________P -1 40.3078 -27.4864 EX 30 12 280
1887276N12322 1887 57 NA NA NOT_NAMED 1887-10-20 18:00:00 ET 40.4000 -28.5000 main 1610 1610 _____________O -1 40.4000 -28.5000 EX 30 14 278
1887276N12322 1887 57 NA NA NOT_NAMED 1887-10-20 21:00:00 ET 40.4995 -29.2502 main 1672 1672 _____________P -1 40.4995 -29.2502 EX 30 12 280
1887276N12322 1887 57 NA NA NOT_NAMED 1887-10-21 00:00:00 ET 40.6000 -30.0000 main 1725 1725 _____________O -1 40.6000 -30.0000 EX 30 12 280
1887276N12322 1887 57 NA NA NOT_NAMED 1887-10-21 03:00:00 ET 40.6995 -30.7502 main 1787 1787 _____________P -1 40.6995 -30.7502 EX 30 12 280
1887276N12322 1887 57 NA NA NOT_NAMED 1887-10-21 06:00:00 ET 40.8000 -31.5000 main 1827 1771 _____________O -1 40.8000 -31.5000 EX 30 11 280
1887276N12322 1887 57 NA NA NOT_NAMED 1887-10-21 09:00:00 ET 40.9010 -32.2495 main 1771 1708 _____________P -1 40.9010 -32.2495 EX 27 11 280
1887276N12322 1887 57 NA NA NOT_NAMED 1887-10-21 12:00:00 ET 41.0000 -33.0000 main 1708 _____________O -1 41.0000 -33.0000 EX 25 1004 11 280

IBTrACS Databaseについて

本データベースは、米国NOAAが公開する1842年以降の世界の熱帯低気圧のベストトラックデータアーカイブInternational Best Track Archive for Climate Stewardship (IBTrACS)を、ウェブで閲覧しやすい形式に変換したものです。

最終更新日:2021-12-06